^^
Datos históricos de la estación: Murcia-Puente Tocinos
Diario Informe para Diciembre 27, 2019 Unidades:  Ambas    Ingés   Métrico
Diario Semanal Mensual Anual
  Máxima: Mínima: Promedio:
Temperatura: 65.7 °F /  18.7 °C 48 °F /  8.9 °C 55.2 °F /  12.9 °C
Punto de rocio: 51.4 °F /  10.8 °C 42.4 °F /  5.8 °C 46.4 °F /  8 °C
Humedad: 88% 51.8% 73%
Velocidad viento: 5.2mph /  8.4km/h - 2.7mph /  4.4km/h
Racha viento: 9mph /  14.5km/h - -
Viento- - SSE
Presión: 30.4 in /  1029.4 hPa 30.3 in /  1026.2 hPa -
Precipitación: 0 in /  0.0 mm    
 
 
Tabla de datos para Diciembre 27, 2019
Hora Temperatura Punto de rocio Presión Viento Velocidad viento Racha viento Humedad Intensidad lluvia(por hora) Nubes
00:04 53.8 °F /  12.1 °C 47.1 °F /  8.4 °C 30.4in /  1028.2hPa ONO 1.6mph /  2.5km/h 4mph /  6.4km/h 78.3% 0in /  0.0mm
00:09 53.8 °F /  12.1 °C 47.5 °F /  8.6 °C 30.4in /  1028.2hPa ONO 1.4mph /  2.2km/h 3.5mph /  5.6km/h 79% 0in /  0.0mm
00:14 53.8 °F /  12.1 °C 47.5 °F /  8.6 °C 30.4in /  1028.2hPa ONO 1.4mph /  2.2km/h 3mph /  4.8km/h 79% 0in /  0.0mm
00:19 53.8 °F /  12.1 °C 47.5 °F /  8.6 °C 30.4in /  1028.2hPa ONO 1.4mph /  2.2km/h   79% 0in /  0.0mm
00:24 54 °F /  12.2 °C 47.7 °F /  8.7 °C 30.4in /  1028.3hPa ONO 0.6mph /  0.9km/h   79% 0in /  0.0mm
00:29 54 °F /  12.2 °C 47.7 °F /  8.7 °C 30.4in /  1028.3hPa Calm   1.4mph /  2.3km/h 79% 0in /  0.0mm
00:34 54 °F /  12.2 °C 47.7 °F /  8.7 °C 30.4in /  1028.3hPa Calm   3.6mph /  5.8km/h 79% 0in /  0.0mm
00:39 54 °F /  12.2 °C 47.5 °F /  8.6 °C 30.4in /  1028.4hPa Calm   4.7mph /  7.6km/h 79% 0in /  0.0mm
00:44 53.8 °F /  12.1 °C 47.3 °F /  8.5 °C 30.4in /  1028.4hPa SE 1.4mph /  2.3km/h 5mph /  8km/h 79% 0in /  0.0mm
00:49 53.4 °F /  11.9 °C 47.3 °F /  8.5 °C 30.4in /  1028.4hPa SSE 2.4mph /  3.9km/h 5.8mph /  9.3km/h 79.4% 0in /  0.0mm
00:54 53.2 °F /  11.8 °C 47.3 °F /  8.5 °C 30.4in /  1028.5hPa Sur 2.7mph /  4.3km/h 6mph /  9.7km/h 80% 0in /  0.0mm
00:59 53.2 °F /  11.8 °C 47.1 °F /  8.4 °C 30.4in /  1028.5hPa Sur 2.9mph /  4.7km/h 5mph /  8km/h 80% 0in /  0.0mm
01:04 53.2 °F /  11.8 °C 47.1 °F /  8.4 °C 30.4in /  1028.5hPa Sur 2.9mph /  4.7km/h 6.4mph /  10.3km/h 80% 0in /  0.0mm
01:09 53.2 °F /  11.8 °C 47.1 °F /  8.4 °C 30.4in /  1028.5hPa Sur 2.9mph /  4.7km/h 7mph /  11.3km/h 79.5% 0in /  0.0mm
01:14 53.2 °F /  11.8 °C 46.9 °F /  8.3 °C 30.4in /  1028.5hPa Sur 3.5mph /  5.7km/h 7mph /  11.3km/h 79% 0in /  0.0mm
01:19 53.2 °F /  11.8 °C 46.9 °F /  8.3 °C 30.4in /  1028.5hPa Sur 4mph /  6.5km/h 6mph /  9.7km/h 78.9% 0in /  0.0mm
01:24 53.4 °F /  11.9 °C 46.8 °F /  8.2 °C 30.4in /  1028.5hPa Sur 3.8mph /  6.1km/h 5.2mph /  8.4km/h 78% 0in /  0.0mm
01:29 53.4 °F /  11.9 °C 46.6 °F /  8.1 °C 30.4in /  1028.3hPa SSE 3.6mph /  5.8km/h 5.8mph /  9.3km/h 77.6% 0in /  0.0mm
01:34 53.4 °F /  11.9 °C 46.4 °F /  8 °C 30.4in /  1028.3hPa SSE 3.3mph /  5.3km/h 6mph /  9.7km/h 77% 0in /  0.0mm
01:39 53.2 °F /  11.8 °C 46.4 °F /  8 °C 30.4in /  1028.4hPa SSE 3.1mph /  5km/h 6mph /  9.7km/h 77.3% 0in /  0.0mm
01:44 53.2 °F /  11.8 °C 46.6 °F /  8.1 °C 30.4in /  1028.4hPa Sur 3mph /  4.8km/h 5mph /  8km/h 78% 0in /  0.0mm
01:49 53.1 °F /  11.7 °C 46.4 °F /  8 °C 30.4in /  1028.4hPa Sur 2.9mph /  4.6km/h 5mph /  8km/h 78% 0in /  0.0mm
01:54 52.9 °F /  11.6 °C 46 °F /  7.8 °C 30.4in /  1028.4hPa Sur 2.6mph /  4.2km/h 5mph /  8km/h 78% 0in /  0.0mm
01:59 52.5 °F /  11.4 °C 45.9 °F /  7.7 °C 30.4in /  1028.4hPa SSO 2.4mph /  3.9km/h 5mph /  8km/h 78% 0in /  0.0mm
02:04 52.5 °F /  11.4 °C 45.9 °F /  7.7 °C 30.4in /  1028.4hPa SSO 2.2mph /  3.5km/h 5mph /  8km/h 78% 0in /  0.0mm
02:09 52.5 °F /  11.4 °C 45.9 °F /  7.7 °C 30.4in /  1028.4hPa SO 2mph /  3.2km/h 5mph /  8km/h 78% 0in /  0.0mm
02:14 52.5 °F /  11.4 °C 45.5 °F /  7.5 °C 30.4in /  1028.3hPa NNO 2.5mph /  4.1km/h 5mph /  8km/h 77.2% 0in /  0.0mm
02:19 52.3 °F /  11.3 °C 45.7 °F /  7.6 °C 30.4in /  1028.3hPa NNO 2.9mph /  4.6km/h 5mph /  8km/h 77.9% 0in /  0.0mm
02:24 52.2 °F /  11.2 °C 45.5 °F /  7.5 °C 30.4in /  1028.5hPa NNO 2mph /  3.2km/h 3.1mph /  5km/h 78% 0in /  0.0mm
02:29 52.2 °F /  11.2 °C 45.5 °F /  7.5 °C 30.4in /  1028.5hPa NNO 1.4mph /  2.2km/h 3.5mph /  5.6km/h 78% 0in /  0.0mm
02:34 52.2 °F /  11.2 °C 45.5 °F /  7.5 °C 30.4in /  1028.5hPa NO 1.4mph /  2.2km/h 3.6mph /  5.8km/h 78% 0in /  0.0mm
02:39 52 °F /  11.1 °C 45.3 °F /  7.4 °C 30.4in /  1028.6hPa Oeste 1.4mph /  2.2km/h 4mph /  6.4km/h 78.2% 0in /  0.0mm
02:44 51.6 °F /  10.9 °C 45.3 °F /  7.4 °C 30.4in /  1028.6hPa Oeste 1.7mph /  2.8km/h 3.5mph /  5.6km/h 79% 0in /  0.0mm
02:49 51.6 °F /  10.9 °C 45.3 °F /  7.4 °C 30.4in /  1028.6hPa Oeste 2mph /  3.2km/h 3.1mph /  5km/h 79% 0in /  0.0mm
02:54 51.6 °F /  10.9 °C 45.1 °F /  7.3 °C 30.4in /  1028.6hPa OSO 1.9mph /  3km/h 4.7mph /  7.6km/h 78.8% 0in /  0.0mm
02:59 51.6 °F /  10.9 °C 45 °F /  7.2 °C 30.4in /  1028.6hPa SSE 1.8mph /  2.9km/h 5.8mph /  9.3km/h 78% 0in /  0.0mm
03:04 51.6 °F /  10.9 °C 45 °F /  7.2 °C 30.4in /  1028.6hPa SSE 2.7mph /  4.3km/h 6mph /  9.7km/h 78% 0in /  0.0mm
03:09 51.6 °F /  10.9 °C 45 °F /  7.2 °C 30.4in /  1028.7hPa SSE 3.1mph /  5km/h 5mph /  8km/h 78% 0in /  0.0mm
03:14 51.6 °F /  10.9 °C 45 °F /  7.2 °C 30.4in /  1028.7hPa Sur 3mph /  4.8km/h 5.8mph /  9.3km/h 78% 0in /  0.0mm
03:19 51.4 °F /  10.8 °C 45 °F /  7.2 °C 30.4in /  1028.7hPa SSE 2.9mph /  4.6km/h 6mph /  9.7km/h 78.2% 0in /  0.0mm
03:24 51.4 °F /  10.8 °C 44.8 °F /  7.1 °C 30.4in /  1028.7hPa Sur 2.9mph /  4.7km/h 5.9mph /  9.5km/h 78.1% 0in /  0.0mm
03:29 51.3 °F /  10.7 °C 44.6 °F /  7 °C 30.4in /  1028.7hPa SSE 2.9mph /  4.7km/h 6mph /  9.7km/h 78% 0in /  0.0mm
03:34 51.3 °F /  10.7 °C 44.6 °F /  7 °C 30.4in /  1028.7hPa Sur 3.5mph /  5.7km/h 6.2mph /  10km/h 78% 0in /  0.0mm
03:39 51.3 °F /  10.7 °C 44.6 °F /  7 °C 30.4in /  1028.7hPa SE 4mph /  6.5km/h 6mph /  9.7km/h 78% 0in /  0.0mm
03:44 51.3 °F /  10.7 °C 44.6 °F /  7 °C 30.4in /  1028.6hPa SSE 3.8mph /  6.1km/h 5.9mph /  9.5km/h 78% 0in /  0.0mm
03:49 51.1 °F /  10.6 °C 44.4 °F /  6.9 °C 30.4in /  1028.6hPa Sur 3.6mph /  5.8km/h 6.2mph /  10km/h 78% 0in /  0.0mm
03:54 51.1 °F /  10.6 °C 44.4 °F /  6.9 °C 30.4in /  1028.6hPa Sur 3.9mph /  6.2km/h 6mph /  9.7km/h 78% 0in /  0.0mm
03:59 51.1 °F /  10.6 °C 44.2 °F /  6.8 °C 30.4in /  1028.6hPa SSO 4mph /  6.5km/h 6.2mph /  10km/h 77.3% 0in /  0.0mm
04:04 51.3 °F /  10.7 °C 44.4 °F /  6.9 °C 30.4in /  1028.6hPa SSO 3.8mph /  6.1km/h 6mph /  9.7km/h 77% 0in /  0.0mm
04:09 51.4 °F /  10.8 °C 44.2 °F /  6.8 °C 30.4in /  1028.6hPa SSO 3.6mph /  5.8km/h 6mph /  9.7km/h 76.1% 0in /  0.0mm
04:14 51.6 °F /  10.9 °C 44.2 °F /  6.8 °C 30.4in /  1028.6hPa SSO 3.6mph /  5.8km/h 6.2mph /  10km/h 76% 0in /  0.0mm
04:19 51.8 °F /  11 °C 44.2 °F /  6.8 °C 30.4in /  1028.6hPa SSE 3.6mph /  5.8km/h 6mph /  9.7km/h 75.5% 0in /  0.0mm
04:24 52 °F /  11.1 °C 44.2 °F /  6.8 °C 30.4in /  1028.6hPa Sur 3.6mph /  5.8km/h 7.4mph /  11.9km/h 75.1% 0in /  0.0mm
04:29 51.8 °F /  11 °C 44.1 °F /  6.7 °C 30.4in /  1028.6hPa Sur 3.6mph /  5.8km/h 7mph /  11.3km/h 75% 0in /  0.0mm
04:34 51.6 °F /  10.9 °C 44.1 °F /  6.7 °C 30.4in /  1028.6hPa SSE 3.6mph /  5.8km/h 6.2mph /  10km/h 75% 0in /  0.0mm
04:39 51.4 °F /  10.8 °C 43.9 °F /  6.6 °C 30.4in /  1028.6hPa SSE 3.6mph /  5.8km/h 6.2mph /  10km/h 75.6% 0in /  0.0mm
04:44 51.1 °F /  10.6 °C 44.1 °F /  6.7 °C 30.4in /  1028.5hPa Sur 3.9mph /  6.2km/h 6mph /  9.7km/h 76.8% 0in /  0.0mm
04:49 50.9 °F /  10.5 °C 43.9 °F /  6.6 °C 30.4in /  1028.5hPa SSE 4mph /  6.5km/h 5.9mph /  9.5km/h 77% 0in /  0.0mm
04:54 50.7 °F /  10.4 °C 43.9 °F /  6.6 °C 30.4in /  1028.5hPa SSE 4mph /  6.5km/h 6mph /  9.7km/h 77.3% 0in /  0.0mm
04:59 50.4 °F /  10.2 °C 43.9 °F /  6.6 °C 30.4in /  1028.3hPa SSE 4mph /  6.5km/h 6.4mph /  10.3km/h 78% 0in /  0.0mm
05:04 50 °F /  10 °C 43.7 °F /  6.5 °C 30.4in /  1028.3hPa SE 4mph /  6.5km/h 7mph /  11.3km/h 79% 0in /  0.0mm
05:09 49.8 °F /  9.9 °C 43.7 °F /  6.5 °C 30.4in /  1028.3hPa SSE 4mph /  6.5km/h 6mph /  9.7km/h 79.8% 0in /  0.0mm
05:14 49.6 °F /  9.8 °C 43.7 °F /  6.5 °C 30.4in /  1028.2hPa Sur 3.5mph /  5.6km/h 5mph /  8km/h 80% 0in /  0.0mm
05:19 49.6 °F /  9.8 °C 43.9 °F /  6.6 °C 30.4in /  1028.2hPa SSE 3.1mph /  5km/h 5mph /  8km/h 80.7% 0in /  0.0mm
05:24 49.6 °F /  9.8 °C 43.7 °F /  6.5 °C 30.4in /  1028.2hPa SSE 3.1mph /  5km/h 5mph /  8km/h 80% 0in /  0.0mm
05:29 49.5 °F /  9.7 °C 43.5 °F /  6.4 °C 30.4in /  1028.0hPa Sur 3.1mph /  5km/h 5mph /  8km/h 80.2% 0in /  0.0mm
05:34 49.5 °F /  9.7 °C 43.9 °F /  6.6 °C 30.4in /  1028.0hPa Sur 2.7mph /  4.3km/h 4.6mph /  7.4km/h 81% 0in /  0.0mm
05:39 49.5 °F /  9.7 °C 43.9 °F /  6.6 °C 30.4in /  1028.0hPa SSE 2.4mph /  3.9km/h 5mph /  8km/h 81% 0in /  0.0mm
05:44 49.5 °F /  9.7 °C 43.5 °F /  6.4 °C 30.4in /  1028.0hPa SE 2.4mph /  3.9km/h 4.7mph /  7.6km/h 80.1% 0in /  0.0mm
05:49 49.1 °F /  9.5 °C 43.3 °F /  6.3 °C 30.4in /  1028.0hPa SSE 2.4mph /  3.9km/h 5mph /  8km/h 80.6% 0in /  0.0mm
05:54 48.9 °F /  9.4 °C 43.3 °F /  6.3 °C 30.4in /  1028.0hPa SSE 2.8mph /  4.5km/h 5.2mph /  8.4km/h 81% 0in /  0.0mm
05:59 48.9 °F /  9.4 °C 43.3 °F /  6.3 °C 30.4in /  1027.9hPa SSE 3.1mph /  5km/h 5mph /  8km/h 81% 0in /  0.0mm
06:04 48.9 °F /  9.4 °C 43.3 °F /  6.3 °C 30.4in /  1027.9hPa SE 3.1mph /  5km/h 5mph /  8km/h 81% 0in /  0.0mm
06:09 48.9 °F /  9.4 °C 43.3 °F /  6.3 °C 30.4in /  1027.9hPa SSE 3.1mph /  5km/h 6.2mph /  10km/h 81% 0in /  0.0mm
06:14 48.7 °F /  9.3 °C 43.2 °F /  6.2 °C 30.4in /  1027.9hPa SSE 3.4mph /  5.5km/h 6mph /  9.7km/h 81% 0in /  0.0mm
06:19 48.7 °F /  9.3 °C 43.2 °F /  6.2 °C 30.4in /  1027.9hPa SSE 3.6mph /  5.8km/h 6mph /  9.7km/h 81.1% 0in /  0.0mm
06:24 48.7 °F /  9.3 °C 43.3 °F /  6.3 °C 30.4in /  1027.9hPa SSE 3.9mph /  6.2km/h 5.9mph /  9.5km/h 82% 0in /  0.0mm
06:29 48.7 °F /  9.3 °C 43.3 °F /  6.3 °C 30.4in /  1027.9hPa Sur 4mph /  6.5km/h 6.9mph /  11.1km/h 81.7% 0in /  0.0mm
06:34 48.9 °F /  9.4 °C 43.3 °F /  6.3 °C 30.4in /  1027.9hPa SSE 4.2mph /  6.7km/h 7.4mph /  11.9km/h 81% 0in /  0.0mm
06:39 48.9 °F /  9.4 °C 43.3 °F /  6.3 °C 30.4in /  1028.0hPa Sur 4.3mph /  6.9km/h 7mph /  11.3km/h 81% 0in /  0.0mm
06:44 49.1 °F /  9.5 °C 43.3 °F /  6.3 °C 30.4in /  1028.0hPa Sur 4.5mph /  7.3km/h 7mph /  11.3km/h 81% 0in /  0.0mm
06:49 49.1 °F /  9.5 °C 43.5 °F /  6.4 °C 30.4in /  1028.0hPa SSE 4.7mph /  7.6km/h 6.2mph /  10km/h 81% 0in /  0.0mm
06:54 49.3 °F /  9.6 °C 43.3 °F /  6.3 °C 30.4in /  1028.2hPa Sur 4.5mph /  7.2km/h 6.9mph /  11.1km/h 80% 0in /  0.0mm
06:59 49.3 °F /  9.6 °C 43.3 °F /  6.3 °C 30.4in /  1028.2hPa Sur 4.3mph /  6.9km/h 7mph /  11.3km/h 80% 0in /  0.0mm
07:04 49.3 °F /  9.6 °C 43.3 °F /  6.3 °C 30.4in /  1028.2hPa Sur 4.3mph /  6.9km/h 6.2mph /  10km/h 80% 0in /  0.0mm
07:09 49.3 °F /  9.6 °C 43.3 °F /  6.3 °C 30.4in /  1028.3hPa SSE 4.3mph /  6.9km/h 6mph /  9.7km/h 80% 0in /  0.0mm
07:14 49.3 °F /  9.6 °C 43.3 °F /  6.3 °C 30.4in /  1028.3hPa SSE 3.9mph /  6.3km/h 6mph /  9.7km/h 80% 0in /  0.0mm
07:19 49.3 °F /  9.6 °C 43.3 °F /  6.3 °C 30.4in /  1028.3hPa SSE 3.6mph /  5.8km/h 6mph /  9.7km/h 80% 0in /  0.0mm
07:24 48.9 °F /  9.4 °C 43 °F /  6.1 °C 30.4in /  1028.3hPa Sur 3.6mph /  5.8km/h 6mph /  9.7km/h 80% 0in /  0.0mm
07:29 48.9 °F /  9.4 °C 43 °F /  6.1 °C 30.4in /  1028.2hPa Sur 3.6mph /  5.8km/h 6.2mph /  10km/h 80% 0in /  0.0mm
07:34 48.9 °F /  9.4 °C 43.2 °F /  6.2 °C 30.4in /  1028.2hPa Sur 3.9mph /  6.2km/h 6.9mph /  11.1km/h 80% 0in /  0.0mm
07:39 49.1 °F /  9.5 °C 43.3 °F /  6.3 °C 30.4in /  1028.4hPa Sur 4mph /  6.5km/h 7mph /  11.3km/h 80% 0in /  0.0mm
07:44 49.3 °F /  9.6 °C 43.3 °F /  6.3 °C 30.4in /  1028.4hPa Sur 4mph /  6.5km/h 7mph /  11.3km/h 79.8% 0in /  0.0mm
07:49 49.3 °F /  9.6 °C 43 °F /  6.1 °C 30.4in /  1028.4hPa Sur 4mph /  6.5km/h 6mph /  9.7km/h 79% 0in /  0.0mm
07:54 49.3 °F /  9.6 °C 43 °F /  6.1 °C 30.4in /  1028.5hPa SSE 3.8mph /  6.1km/h 6mph /  9.7km/h 79% 0in /  0.0mm
07:59 49.3 °F /  9.6 °C 43 °F /  6.1 °C 30.4in /  1028.5hPa SSE 3.6mph /  5.8km/h 6mph /  9.7km/h 79% 0in /  0.0mm
08:04 49.1 °F /  9.5 °C 43 °F /  6.1 °C 30.4in /  1028.5hPa SSE 3.6mph /  5.8km/h 6mph /  9.7km/h 79% 0in /  0.0mm
08:09 48.9 °F /  9.4 °C 43 °F /  6.1 °C 30.4in /  1028.6hPa SSE 3.6mph /  5.8km/h 5.8mph /  9.3km/h 79.7% 0in /  0.0mm
08:14 48.7 °F /  9.3 °C 42.8 °F /  6 °C 30.4in /  1028.6hPa SSE 3.3mph /  5.3km/h 6mph /  9.7km/h 80% 0in /  0.0mm
08:19 48.7 °F /  9.3 °C 42.8 °F /  6 °C 30.4in /  1028.6hPa Sur 3.1mph /  5km/h 6mph /  9.7km/h 80% 0in /  0.0mm
08:24 48.9 °F /  9.4 °C 43 °F /  6.1 °C 30.4in /  1028.6hPa SSE 3.4mph /  5.5km/h 5mph /  8km/h 80% 0in /  0.0mm
08:29 48.7 °F /  9.3 °C 43 °F /  6.1 °C 30.4in /  1028.6hPa ESE 3.6mph /  5.8km/h 5mph /  8km/h 80% 0in /  0.0mm
08:34 48.6 °F /  9.2 °C 42.6 °F /  5.9 °C 30.4in /  1028.6hPa SE 3.3mph /  5.3km/h 6.2mph /  10km/h 80% 0in /  0.0mm
08:39 48.2 °F /  9 °C 42.6 °F /  5.9 °C 30.4in /  1028.6hPa SSE 3.1mph /  5km/h 6mph /  9.7km/h 81% 0in /  0.0mm
08:44 48 °F /  8.9 °C 42.4 °F /  5.8 °C 30.4in /  1028.6hPa SSE 3.6mph /  5.8km/h 6mph /  9.7km/h 81% 0in /  0.0mm
08:49 48.2 °F /  9 °C 43 °F /  6.1 °C 30.4in /  1028.6hPa Sur 4mph /  6.5km/h 6.2mph /  10km/h 82% 0in /  0.0mm
08:54 48.4 °F /  9.1 °C 42.8 °F /  6 °C 30.4in /  1028.8hPa Sur 4mph /  6.5km/h 6.9mph /  11.1km/h 81% 0in /  0.0mm
08:59 48.6 °F /  9.2 °C 43 °F /  6.1 °C 30.4in /  1028.8hPa Sur 4mph /  6.5km/h 7mph /  11.3km/h 80.9% 0in /  0.0mm
09:04 48.7 °F /  9.3 °C 42.8 °F /  6 °C 30.4in /  1028.8hPa SSE 4.2mph /  6.8km/h 7mph /  11.3km/h 80% 0in /  0.0mm
09:09 48.7 °F /  9.3 °C 42.8 °F /  6 °C 30.4in /  1028.8hPa SSE 4.3mph /  6.9km/h 6.2mph /  10km/h 80% 0in /  0.0mm
09:14 48.7 °F /  9.3 °C 42.8 °F /  6 °C 30.4in /  1028.8hPa SSE 4.3mph /  6.9km/h 7.4mph /  11.9km/h 80% 0in /  0.0mm
09:19 48.7 °F /  9.3 °C 43 °F /  6.1 °C 30.4in /  1028.8hPa SSE 4.3mph /  6.9km/h 7mph /  11.3km/h 80% 0in /  0.0mm
09:24 49.1 °F /  9.5 °C 43 °F /  6.1 °C 30.4in /  1029.0hPa SSE 4.8mph /  7.8km/h 7mph /  11.3km/h 79.8% 0in /  0.0mm
09:29 49.3 °F /  9.6 °C 43 °F /  6.1 °C 30.4in /  1029.0hPa SSE 5.2mph /  8.4km/h 7.4mph /  11.9km/h 79% 0in /  0.0mm
09:34 49.5 °F /  9.7 °C 43.2 °F /  6.2 °C 30.4in /  1029.0hPa SSE 5.2mph /  8.4km/h 8.1mph /  13km/h 78.5% 0in /  0.0mm
09:39 49.6 °F /  9.8 °C 43.2 °F /  6.2 °C 30.4in /  1029.1hPa Sur 5.2mph /  8.4km/h 8mph /  12.9km/h 78% 0in /  0.0mm
09:44 50 °F /  10 °C 43.3 °F /  6.3 °C 30.4in /  1029.1hPa SSE 4.9mph /  7.9km/h 7mph /  11.3km/h 77.7% 0in /  0.0mm
09:49 50.5 °F /  10.3 °C 43.5 °F /  6.4 °C 30.4in /  1029.1hPa SSE 4.7mph /  7.6km/h 7mph /  11.3km/h 77% 0in /  0.0mm
09:54 50.9 °F /  10.5 °C 43.7 °F /  6.5 °C 30.4in /  1029.1hPa SSE 4.5mph /  7.2km/h 6mph /  9.7km/h 76.2% 0in /  0.0mm
09:59 51.3 °F /  10.7 °C 43.7 °F /  6.5 °C 30.4in /  1029.1hPa Sur 4.3mph /  6.9km/h 6.2mph /  10km/h 75.3% 0in /  0.0mm
10:04 51.4 °F /  10.8 °C 43.9 °F /  6.6 °C 30.4in /  1029.1hPa Sur 4.1mph /  6.6km/h 6.2mph /  10km/h 75% 0in /  0.0mm
10:09 52 °F /  11.1 °C 44.1 °F /  6.7 °C 30.4in /  1029.3hPa Sur 4mph /  6.5km/h 6.9mph /  11.1km/h 74.4% 0in /  0.0mm
10:14 52.3 °F /  11.3 °C 44.1 °F /  6.7 °C 30.4in /  1029.3hPa Sur 4mph /  6.5km/h 7mph /  11.3km/h 73.4% 0in /  0.0mm
10:19 52.7 °F /  11.5 °C 44.1 °F /  6.7 °C 30.4in /  1029.3hPa SSO 4mph /  6.5km/h 6mph /  9.7km/h 72.6% 0in /  0.0mm
10:24 52.9 °F /  11.6 °C 44.1 °F /  6.7 °C 30.4in /  1029.4hPa SSO 3.8mph /  6.1km/h 6.2mph /  10km/h 71.9% 0in /  0.0mm
10:29 52.9 °F /  11.6 °C 43.9 °F /  6.6 °C 30.4in /  1029.4hPa SSO 3.6mph /  5.8km/h 6mph /  9.7km/h 71.5% 0in /  0.0mm
10:34 53.1 °F /  11.7 °C 43.9 °F /  6.6 °C 30.4in /  1029.4hPa Sur 3.6mph /  5.8km/h 6mph /  9.7km/h 71.1% 0in /  0.0mm
10:39 53.1 °F /  11.7 °C 44.2 °F /  6.8 °C 30.4in /  1029.4hPa Sur 3.6mph /  5.8km/h 6.2mph /  10km/h 71.6% 0in /  0.0mm
10:44 53.2 °F /  11.8 °C 44.4 °F /  6.9 °C 30.4in /  1029.4hPa Sur 3.6mph /  5.8km/h 6mph /  9.7km/h 72% 0in /  0.0mm
10:49 53.4 °F /  11.9 °C 44.2 °F /  6.8 °C 30.4in /  1029.4hPa Sur 3.6mph /  5.8km/h 7.4mph /  11.9km/h 71.1% 0in /  0.0mm
10:54 53.4 °F /  11.9 °C 44.2 °F /  6.8 °C 30.4in /  1029.4hPa Sur 4.2mph /  6.8km/h 8.1mph /  13km/h 70.9% 0in /  0.0mm
10:59 53.8 °F /  12.1 °C 44.4 °F /  6.9 °C 30.4in /  1029.4hPa SSO 4.7mph /  7.6km/h 8.5mph /  13.7km/h 70.5% 0in /  0.0mm
11:04 54 °F /  12.2 °C 44.6 °F /  7 °C 30.4in /  1029.4hPa Sur 5mph /  8.1km/h 9mph /  14.5km/h 70.6% 0in /  0.0mm
11:09 54.1 °F /  12.3 °C 44.4 °F /  6.9 °C 30.4in /  1029.4hPa Sur 5.2mph /  8.4km/h 7mph /  11.3km/h 69.6% 0in /  0.0mm
11:14 54.3 °F /  12.4 °C 44.6 °F /  7 °C 30.4in /  1029.4hPa Sur 4.7mph /  7.5km/h 7mph /  11.3km/h 69.5% 0in /  0.0mm
11:19 54.7 °F /  12.6 °C 44.8 °F /  7.1 °C 30.4in /  1029.4hPa Sur 4.3mph /  6.9km/h 6.2mph /  10km/h 69.2% 0in /  0.0mm
11:24 54.9 °F /  12.7 °C 44.8 °F /  7.1 °C 30.4in /  1029.4hPa Sur 3.9mph /  6.3km/h 6mph /  9.7km/h 68.7% 0in /  0.0mm
11:29 55.2 °F /  12.9 °C 45 °F /  7.2 °C 30.4in /  1029.3hPa Sur 3.6mph /  5.8km/h 6mph /  9.7km/h 68.6% 0in /  0.0mm
11:34 55.6 °F /  13.1 °C 45 °F /  7.2 °C 30.4in /  1029.3hPa SSO 3.3mph /  5.3km/h 6mph /  9.7km/h 67.6% 0in /  0.0mm
11:39 55.8 °F /  13.2 °C 45 °F /  7.2 °C 30.4in /  1029.3hPa Sur 3.1mph /  5km/h 6mph /  9.7km/h 67% 0in /  0.0mm
11:44 56.1 °F /  13.4 °C 45 °F /  7.2 °C 30.4in /  1029.2hPa OSO 3mph /  4.8km/h 5mph /  8km/h 66.2% 0in /  0.0mm
11:49 56.7 °F /  13.7 °C 45.3 °F /  7.4 °C 30.4in /  1029.2hPa Sur 2.9mph /  4.7km/h 5mph /  8km/h 66.1% 0in /  0.0mm
11:54 57 °F /  13.9 °C 45.3 °F /  7.4 °C 30.4in /  1029.2hPa SO 2.2mph /  3.6km/h 5mph /  8km/h 64.9% 0in /  0.0mm
11:59 57.4 °F /  14.1 °C 45.3 °F /  7.4 °C 30.4in /  1029.1hPa SO 1.8mph /  2.9km/h 5mph /  8km/h 64.2% 0in /  0.0mm
12:04 57.7 °F /  14.3 °C 45.7 °F /  7.6 °C 30.4in /  1029.1hPa SO 1.9mph /  3.1km/h 4.6mph /  7.4km/h 64.1% 0in /  0.0mm
12:09 58.1 °F /  14.5 °C 45.5 °F /  7.5 °C 30.4in /  1029.1hPa Oeste 2mph /  3.2km/h 5mph /  8km/h 63% 0in /  0.0mm
12:14 58.3 °F /  14.6 °C 45.7 °F /  7.6 °C 30.4in /  1029.0hPa Oeste 2.5mph /  4.1km/h 5mph /  8km/h 63% 0in /  0.0mm
12:19 58.3 °F /  14.6 °C 45.7 °F /  7.6 °C 30.4in /  1029.0hPa Oeste 2.9mph /  4.7km/h 5mph /  8km/h 63% 0in /  0.0mm
12:24 58.6 °F /  14.8 °C 46 °F /  7.8 °C 30.4in /  1029.0hPa OSO 2.4mph /  3.8km/h 5.2mph /  8.4km/h 63% 0in /  0.0mm
12:29 59.2 °F /  15.1 °C 46.2 °F /  7.9 °C 30.4in /  1028.8hPa SO 2mph /  3.2km/h 5.2mph /  8.4km/h 62% 0in /  0.0mm
12:34 59.4 °F /  15.2 °C 46.2 °F /  7.9 °C 30.4in /  1028.8hPa OSO 2.7mph /  4.3km/h 5mph /  8km/h 62% 0in /  0.0mm
12:39 59.5 °F /  15.3 °C 46.4 °F /  8 °C 30.4in /  1028.8hPa SO 3.1mph /  5km/h 5mph /  8km/h 61.8% 0in /  0.0mm
12:44 59.9 °F /  15.5 °C 46.4 °F /  8 °C 30.4in /  1028.6hPa Oeste 2.5mph /  4km/h 5mph /  8km/h 61% 0in /  0.0mm
12:49 60.3 °F /  15.7 °C 46.8 °F /  8.2 °C 30.4in /  1028.6hPa OSO 2mph /  3.2km/h 3.6mph /  5.8km/h 60.9% 0in /  0.0mm
12:54 60.6 °F /  15.9 °C 46.8 °F /  8.2 °C 30.4in /  1028.6hPa SO 1.9mph /  3km/h 4.6mph /  7.4km/h 60.1% 0in /  0.0mm
12:59 61.2 °F /  16.2 °C 47.3 °F /  8.5 °C 30.4in /  1028.4hPa SE 1.8mph /  2.9km/h 5.2mph /  8.4km/h 60.1% 0in /  0.0mm
13:04 61.5 °F /  16.4 °C 47.8 °F /  8.8 °C 30.4in /  1028.4hPa SSE 2.2mph /  3.5km/h 5mph /  8km/h 60.9% 0in /  0.0mm
13:09 62.1 °F /  16.7 °C 48 °F /  8.9 °C 30.4in /  1028.4hPa SE 2.4mph /  3.9km/h 5mph /  8km/h 60.3% 0in /  0.0mm
13:14 62.2 °F /  16.8 °C 48.6 °F /  9.2 °C 30.4in /  1028.1hPa SE 2.4mph /  3.9km/h 5mph /  8km/h 61% 0in /  0.0mm
13:19 62.6 °F /  17 °C 48.7 °F /  9.3 °C 30.4in /  1028.1hPa Este 2.4mph /  3.9km/h 4.7mph /  7.6km/h 60.3% 0in /  0.0mm
13:24 63 °F /  17.2 °C 48.4 °F /  9.1 °C 30.4in /  1028.1hPa NE 2.1mph /  3.3km/h 5mph /  8km/h 59.2% 0in /  0.0mm
13:29 62.8 °F /  17.1 °C 48.7 °F /  9.3 °C 30.4in /  1027.7hPa ESE 1.8mph /  2.9km/h 5.2mph /  8.4km/h 60% 0in /  0.0mm
13:34 63 °F /  17.2 °C 48.7 °F /  9.3 °C 30.4in /  1027.7hPa ESE 2.2mph /  3.5km/h 5.2mph /  8.4km/h 60% 0in /  0.0mm
13:39 63.1 °F /  17.3 °C 49.1 °F /  9.5 °C 30.4in /  1027.7hPa ENE 2.4mph /  3.9km/h 5mph /  8km/h 60.2% 0in /  0.0mm
13:44 63.1 °F /  17.3 °C 48.9 °F /  9.4 °C 30.3in /  1027.5hPa ENE 2.2mph /  3.5km/h 4.6mph /  7.4km/h 60% 0in /  0.0mm
13:49 63 °F /  17.2 °C 48.9 °F /  9.4 °C 30.3in /  1027.5hPa Este 2mph /  3.2km/h 5mph /  8km/h 60% 0in /  0.0mm
13:54 63 °F /  17.2 °C 48.9 °F /  9.4 °C 30.3in /  1027.5hPa SE 2.2mph /  3.6km/h 5mph /  8km/h 60% 0in /  0.0mm
13:59 63 °F /  17.2 °C 48.9 °F /  9.4 °C 30.3in /  1027.3hPa Oeste 2.4mph /  3.9km/h 5.2mph /  8.4km/h 60% 0in /  0.0mm
14:04 63.1 °F /  17.3 °C 48.9 °F /  9.4 °C 30.3in /  1027.3hPa Oeste 2.1mph /  3.4km/h 6.2mph /  10km/h 59.9% 0in /  0.0mm
14:09 63 °F /  17.2 °C 48.9 °F /  9.4 °C 30.3in /  1027.3hPa Oeste 2mph /  3.2km/h 6mph /  9.7km/h 60% 0in /  0.0mm
14:14 63.1 °F /  17.3 °C 49.1 °F /  9.5 °C 30.3in /  1027.2hPa Sur 2.5mph /  4.1km/h 5.8mph /  9.3km/h 60% 0in /  0.0mm
14:19 63.3 °F /  17.4 °C 49.1 °F /  9.5 °C 30.3in /  1027.2hPa SSO 2.9mph /  4.6km/h 6mph /  9.7km/h 59.8% 0in /  0.0mm
14:24 63.5 °F /  17.5 °C 48.9 °F /  9.4 °C 30.3in /  1027.2hPa Oeste 2.6mph /  4.2km/h 5.2mph /  8.4km/h 59% 0in /  0.0mm
14:29 63.7 °F /  17.6 °C 48.9 °F /  9.4 °C 30.3in /  1027.0hPa NNO 2.4mph /  3.9km/h 5mph /  8km/h 59% 0in /  0.0mm
14:34 63.9 °F /  17.7 °C 48.9 °F /  9.4 °C 30.3in /  1027.0hPa ESE 2.1mph /  3.3km/h 4.7mph /  7.6km/h 58.3% 0in /  0.0mm
14:39 63.9 °F /  17.7 °C 48.7 °F /  9.3 °C 30.3in /  1027.0hPa SE 1.8mph /  2.9km/h 5mph /  8km/h 57.8% 0in /  0.0mm
14:44 64 °F /  17.8 °C 48.7 °F /  9.3 °C 30.3in /  1026.7hPa Sur 2.2mph /  3.5km/h 5mph /  8km/h 57.5% 0in /  0.0mm
14:49 64.2 °F /  17.9 °C 48.7 °F /  9.3 °C 30.3in /  1026.7hPa SO 2.4mph /  3.9km/h 7.4mph /  11.9km/h 57% 0in /  0.0mm
14:54 64.2 °F /  17.9 °C 48.7 °F /  9.3 °C 30.3in /  1026.7hPa SSO 2.7mph /  4.3km/h 7mph /  11.3km/h 57% 0in /  0.0mm
14:59 64.2 °F /  17.9 °C 48.7 °F /  9.3 °C 30.3in /  1026.7hPa SE 2.9mph /  4.7km/h 5.9mph /  9.5km/h 57% 0in /  0.0mm
15:04 64.2 °F /  17.9 °C 48.6 °F /  9.2 °C 30.3in /  1026.7hPa SE 3mph /  4.9km/h 6mph /  9.7km/h 56.9% 0in /  0.0mm
15:09 64 °F /  17.8 °C 48.4 °F /  9.1 °C 30.3in /  1026.7hPa ESE 3.1mph /  5km/h 5mph /  8km/h 56.5% 0in /  0.0mm
15:14 64.2 °F /  17.9 °C 48.4 °F /  9.1 °C 30.3in /  1026.5hPa SE 2.7mph /  4.3km/h 6.2mph /  10km/h 56.3% 0in /  0.0mm
15:19 64.2 °F /  17.9 °C 48.4 °F /  9.1 °C 30.3in /  1026.5hPa SE 2.4mph /  3.9km/h 6mph /  9.7km/h 56.1% 0in /  0.0mm
15:24 64.6 °F /  18.1 °C 48.2 °F /  9 °C 30.3in /  1026.5hPa ESE 2.7mph /  4.3km/h 5mph /  8km/h 55.5% 0in /  0.0mm
15:29 64.6 °F /  18.1 °C 48 °F /  8.9 °C 30.3in /  1026.4hPa SSE 2.9mph /  4.7km/h 5mph /  8km/h 55% 0in /  0.0mm
15:34 64.8 °F /  18.2 °C 48.2 °F /  9 °C 30.3in /  1026.4hPa Sur 2.9mph /  4.7km/h 6.9mph /  11.1km/h 55.2% 0in /  0.0mm
15:39 64.8 °F /  18.2 °C 48 °F /  8.9 °C 30.3in /  1026.5hPa SSO 2.9mph /  4.7km/h 7mph /  11.3km/h 54.6% 0in /  0.0mm
15:44 64.8 °F /  18.2 °C 47.8 °F /  8.8 °C 30.3in /  1026.5hPa SO 2.9mph /  4.7km/h 5mph /  8km/h 54% 0in /  0.0mm
15:49 65.1 °F /  18.4 °C 47.5 °F /  8.6 °C 30.3in /  1026.5hPa SO 2.9mph /  4.7km/h 3mph /  4.8km/h 53% 0in /  0.0mm
15:54 65.5 °F /  18.6 °C 47.8 °F /  8.8 °C 30.3in /  1026.5hPa SO 1.2mph /  1.9km/h 3.1mph /  5km/h 52.8% 0in /  0.0mm
15:59 65.7 °F /  18.7 °C 47.3 °F /  8.5 °C 30.3in /  1026.5hPa Calm   3.6mph /  5.8km/h 51.8% 0in /  0.0mm
16:04 65.5 °F /  18.6 °C 47.5 °F /  8.6 °C 30.3in /  1026.5hPa ENE 1.3mph /  2.1km/h 5.2mph /  8.4km/h 52% 0in /  0.0mm
16:09 65.3 °F /  18.5 °C 47.3 °F /  8.5 °C 30.3in /  1026.5hPa NE 2mph /  3.2km/h 5mph /  8km/h 52.1% 0in /  0.0mm
16:14 64.9 °F /  18.3 °C 47.3 °F /  8.5 °C 30.3in /  1026.5hPa NNE 2.5mph /  4.1km/h 5.8mph /  9.3km/h 52.9% 0in /  0.0mm
16:19 64.8 °F /  18.2 °C 47.1 °F /  8.4 °C 30.3in /  1026.5hPa NNE 2.9mph /  4.7km/h 6mph /  9.7km/h 53% 0in /  0.0mm
16:24 64.6 °F /  18.1 °C 47.5 °F /  8.6 °C 30.3in /  1026.5hPa NNE 2.6mph /  4.2km/h 5mph /  8km/h 53.6% 0in /  0.0mm
16:29 64.8 °F /  18.2 °C 47.1 °F /  8.4 °C 30.3in /  1026.5hPa NNE 2.4mph /  3.9km/h 4.6mph /  7.4km/h 52.9% 0in /  0.0mm
16:34 64.6 °F /  18.1 °C 46.8 °F /  8.2 °C 30.3in /  1026.5hPa NE 2.4mph /  3.9km/h 5mph /  8km/h 52.3% 0in /  0.0mm
16:39 64.6 °F /  18.1 °C 47.1 °F /  8.4 °C 30.3in /  1026.5hPa NE 2.4mph /  3.9km/h 5mph /  8km/h 53% 0in /  0.0mm
16:44 64.6 °F /  18.1 °C 47.3 °F /  8.5 °C 30.3in /  1026.5hPa NE 2.7mph /  4.3km/h 5mph /  8km/h 53.4% 0in /  0.0mm
16:49 64.6 °F /  18.1 °C 47.7 °F /  8.7 °C 30.3in /  1026.5hPa ENE 2.9mph /  4.7km/h 5mph /  8km/h 54% 0in /  0.0mm
16:54 64.6 °F /  18.1 °C 47.7 °F /  8.7 °C 30.3in /  1026.5hPa ENE 2.5mph /  4.1km/h 5mph /  8km/h 54% 0in /  0.0mm
16:59 64.4 °F /  18 °C 47.3 °F /  8.5 °C 30.3in /  1026.5hPa NE 2.4mph /  3.9km/h 5.2mph /  8.4km/h 54% 0in /  0.0mm
17:04 64.2 °F /  17.9 °C 47.3 °F /  8.5 °C 30.3in /  1026.5hPa ENE 2.9mph /  4.6km/h 5mph /  8km/h 54.1% 0in /  0.0mm
17:09 64.2 °F /  17.9 °C 47.5 °F /  8.6 °C 30.3in /  1026.5hPa NE 3.1mph /  5km/h 5.2mph /  8.4km/h 54.5% 0in /  0.0mm
17:14 64 °F /  17.8 °C 47.5 °F /  8.6 °C 30.3in /  1026.5hPa NE 3mph /  4.8km/h 5mph /  8km/h 55.1% 0in /  0.0mm
17:19 64 °F /  17.8 °C 48 °F /  8.9 °C 30.3in /  1026.5hPa NE 2.9mph /  4.6km/h 5mph /  8km/h 56% 0in /  0.0mm
17:24 63.9 °F /  17.7 °C 48 °F /  8.9 °C 30.3in /  1026.5hPa ENE 2.9mph /  4.7km/h 5mph /  8km/h 56.1% 0in /  0.0mm
17:29 63.9 °F /  17.7 °C 48.2 °F /  9 °C 30.3in /  1026.4hPa NE 2.9mph /  4.7km/h 5mph /  8km/h 56.9% 0in /  0.0mm
17:34 63.7 °F /  17.6 °C 48.2 °F /  9 °C 30.3in /  1026.4hPa ENE 2.6mph /  4.2km/h 5mph /  8km/h 57% 0in /  0.0mm
17:39 63.5 °F /  17.5 °C 48.4 °F /  9.1 °C 30.3in /  1026.4hPa Este 2.4mph /  3.9km/h 5mph /  8km/h 57.6% 0in /  0.0mm
17:44 63.3 °F /  17.4 °C 48.4 °F /  9.1 °C 30.3in /  1026.3hPa ENE 2.4mph /  3.9km/h 5mph /  8km/h 58% 0in /  0.0mm
17:49 63.1 °F /  17.3 °C 48 °F /  8.9 °C 30.3in /  1026.3hPa ENE 2.4mph /  3.9km/h 5.8mph /  9.3km/h 58.2% 0in /  0.0mm
17:54 63 °F /  17.2 °C 48.4 °F /  9.1 °C 30.3in /  1026.3hPa ENE 2.4mph /  3.9km/h 6mph /  9.7km/h 59% 0in /  0.0mm
17:59 62.6 °F /  17 °C 48.4 °F /  9.1 °C 30.3in /  1026.3hPa ENE 2.4mph /  3.9km/h 5mph /  8km/h 59.5% 0in /  0.0mm
18:04 62.4 °F /  16.9 °C 48.4 °F /  9.1 °C 30.3in /  1026.3hPa Este 2.1mph /  3.4km/h 4mph /  6.4km/h 60% 0in /  0.0mm
18:09 62.2 °F /  16.8 °C 48.4 °F /  9.1 °C 30.3in /  1026.3hPa Este 2mph /  3.2km/h 5mph /  8km/h 60.5% 0in /  0.0mm
18:14 62.2 °F /  16.8 °C 48.6 °F /  9.2 °C 30.3in /  1026.2hPa ESE 2.2mph /  3.6km/h 5mph /  8km/h 61.3% 0in /  0.0mm
18:19 61.9 °F /  16.6 °C 48.7 °F /  9.3 °C 30.3in /  1026.2hPa ESE 2.4mph /  3.9km/h 5mph /  8km/h 62% 0in /  0.0mm
18:24 61.5 °F /  16.4 °C 48.7 °F /  9.3 °C 30.3in /  1026.3hPa ESE 2.7mph /  4.3km/h 5mph /  8km/h 63.1% 0in /  0.0mm
18:29 61.2 °F /  16.2 °C 48.9 °F /  9.4 °C 30.3in /  1026.3hPa ESE 2.9mph /  4.7km/h 5mph /  8km/h 64.5% 0in /  0.0mm
18:34 60.6 °F /  15.9 °C 49.1 °F /  9.5 °C 30.3in /  1026.3hPa ESE 2.9mph /  4.7km/h 5mph /  8km/h 65.9% 0in /  0.0mm
18:39 60.3 °F /  15.7 °C 49.6 °F /  9.8 °C 30.3in /  1026.3hPa ESE 2.9mph /  4.7km/h 5.2mph /  8.4km/h 67.9% 0in /  0.0mm
18:44 59.9 °F /  15.5 °C 50 °F /  10 °C 30.3in /  1026.2hPa ESE 2.9mph /  4.7km/h 6.2mph /  10km/h 69.9% 0in /  0.0mm
18:49 59.5 °F /  15.3 °C 50.4 °F /  10.2 °C 30.3in /  1026.2hPa ESE 2.9mph /  4.7km/h 6mph /  9.7km/h 71.7% 0in /  0.0mm
18:54 59.4 °F /  15.2 °C 50.7 °F /  10.4 °C 30.3in /  1026.4hPa ESE 3mph /  4.8km/h 6mph /  9.7km/h 73.1% 0in /  0.0mm
18:59 59 °F /  15 °C 50.9 °F /  10.5 °C 30.3in /  1026.4hPa ESE 3.1mph /  5km/h 5.8mph /  9.3km/h 74.4% 0in /  0.0mm
19:04 58.8 °F /  14.9 °C 51.1 °F /  10.6 °C 30.3in /  1026.4hPa ESE 3mph /  4.8km/h 6mph /  9.7km/h 75.4% 0in /  0.0mm
19:09 58.6 °F /  14.8 °C 51.3 °F /  10.7 °C 30.3in /  1026.5hPa Este 2.9mph /  4.7km/h 5.2mph /  8.4km/h 76.5% 0in /  0.0mm
19:14 58.5 °F /  14.7 °C 51.4 °F /  10.8 °C 30.3in /  1026.5hPa Este 2.6mph /  4.2km/h 5mph /  8km/h 77.4% 0in /  0.0mm
19:19 58.3 °F /  14.6 °C 51.4 °F /  10.8 °C 30.3in /  1026.5hPa ESE 2.4mph /  3.9km/h 5.2mph /  8.4km/h 78.3% 0in /  0.0mm
19:24 57.9 °F /  14.4 °C 51.4 °F /  10.8 °C 30.3in /  1026.6hPa ESE 2.7mph /  4.3km/h 5mph /  8km/h 79% 0in /  0.0mm
19:29 57.9 °F /  14.4 °C 51.4 °F /  10.8 °C 30.3in /  1026.6hPa ESE 2.9mph /  4.7km/h 4.6mph /  7.4km/h 79% 0in /  0.0mm
19:34 57.7 °F /  14.3 °C 51.3 °F /  10.7 °C 30.3in /  1026.6hPa ESE 2.4mph /  3.8km/h 5mph /  8km/h 79% 0in /  0.0mm
19:39 57.7 °F /  14.3 °C 51.4 °F /  10.8 °C 30.3in /  1026.8hPa ESE 2mph /  3.2km/h 3.5mph /  5.6km/h 79.8% 0in /  0.0mm
19:44 57.6 °F /  14.2 °C 51.1 °F /  10.6 °C 30.3in /  1026.8hPa ENE 2mph /  3.2km/h 5.2mph /  8.4km/h 78.9% 0in /  0.0mm
19:49 57.2 °F /  14 °C 50.4 °F /  10.2 °C 30.3in /  1026.8hPa NNE 2mph /  3.2km/h 5mph /  8km/h 77.5% 0in /  0.0mm
19:54 56.8 °F /  13.8 °C 49.8 °F /  9.9 °C 30.3in /  1026.8hPa NNE 2.5mph /  4.1km/h 5mph /  8km/h 77% 0in /  0.0mm
19:59 56.7 °F /  13.7 °C 49.6 °F /  9.8 °C 30.3in /  1026.8hPa NNE 2.9mph /  4.7km/h 4mph /  6.4km/h 77% 0in /  0.0mm
20:04 56.5 °F /  13.6 °C 49.5 °F /  9.7 °C 30.3in /  1026.8hPa NE 2.5mph /  4.1km/h 5mph /  8km/h 77% 0in /  0.0mm
20:09 56.1 °F /  13.4 °C 49.3 °F /  9.6 °C 30.3in /  1027.0hPa NE 2.4mph /  3.9km/h 5.8mph /  9.3km/h 77.9% 0in /  0.0mm
20:14 55.8 °F /  13.2 °C 49.3 °F /  9.6 °C 30.3in /  1027.0hPa NE 2.4mph /  3.9km/h 6mph /  9.7km/h 78.9% 0in /  0.0mm
20:19 55.6 °F /  13.1 °C 49.5 °F /  9.7 °C 30.3in /  1027.0hPa NE 2.4mph /  3.9km/h 5mph /  8km/h 79.7% 0in /  0.0mm
20:24 55.4 °F /  13 °C 49.3 °F /  9.6 °C 30.3in /  1027.0hPa NE 2.1mph /  3.3km/h 3mph /  4.8km/h 80% 0in /  0.0mm
20:29 55.2 °F /  12.9 °C 49.5 °F /  9.7 °C 30.3in /  1027.0hPa NE 1.8mph /  2.9km/h 3mph /  4.8km/h 81% 0in /  0.0mm
20:34 55 °F /  12.8 °C 49.5 °F /  9.7 °C 30.3in /  1027.0hPa NE 0.7mph /  1.2km/h   81.2% 0in /  0.0mm
20:39 55 °F /  12.8 °C 49.6 °F /  9.8 °C 30.3in /  1027.1hPa Calm     82% 0in /  0.0mm
20:44 54.9 °F /  12.7 °C 49.5 °F /  9.7 °C 30.3in /  1027.1hPa Calm     82% 0in /  0.0mm
20:49 54.9 °F /  12.7 °C 49.5 °F /  9.7 °C 30.3in /  1027.1hPa Calm     82% 0in /  0.0mm
20:54 54.7 °F /  12.6 °C 49.5 °F /  9.7 °C 30.3in /  1027.1hPa Calm     82.3% 0in /  0.0mm
20:59 54.7 °F /  12.6 °C 49.6 °F /  9.8 °C 30.3in /  1027.0hPa Calm   4mph /  6.4km/h 83% 0in /  0.0mm
21:04 54.7 °F /  12.6 °C 49.6 °F /  9.8 °C 30.3in /  1027.0hPa Sur 0.9mph /  1.5km/h 5mph /  8km/h 83% 0in /  0.0mm
21:09 54.9 °F /  12.7 °C 50 °F /  10 °C 30.3in /  1027.0hPa Sur 1.4mph /  2.2km/h 5mph /  8km/h 83.5% 0in /  0.0mm
21:14 54.9 °F /  12.7 °C 49.8 °F /  9.9 °C 30.3in /  1027.0hPa Sur 2.3mph /  3.7km/h 5mph /  8km/h 82.9% 0in /  0.0mm
21:19 54.9 °F /  12.7 °C 49.3 °F /  9.6 °C 30.3in /  1027.0hPa Sur 2.9mph /  4.7km/h 5mph /  8km/h 81.5% 0in /  0.0mm
21:24 54.9 °F /  12.7 °C 49.1 °F /  9.5 °C 30.3in /  1027.0hPa Sur 2.6mph /  4.2km/h 5mph /  8km/h 80.6% 0in /  0.0mm
21:29 54.9 °F /  12.7 °C 48.7 °F /  9.3 °C 30.3in /  1027.0hPa Sur 2.4mph /  3.9km/h 5mph /  8km/h 80% 0in /  0.0mm
21:34 54.9 °F /  12.7 °C 48.7 °F /  9.3 °C 30.3in /  1027.0hPa Sur 1.8mph /  2.9km/h 3.6mph /  5.8km/h 80.1% 0in /  0.0mm
21:39 54.5 °F /  12.5 °C 48.7 °F /  9.3 °C 30.3in /  1027.1hPa Sur 1.4mph /  2.2km/h 4mph /  6.4km/h 81% 0in /  0.0mm
21:44 54.1 °F /  12.3 °C 48.6 °F /  9.2 °C 30.3in /  1027.1hPa Sur 1.4mph /  2.2km/h 2.9mph /  4.7km/h 81% 0in /  0.0mm
21:49 54 °F /  12.2 °C 48.6 °F /  9.2 °C 30.3in /  1027.1hPa Sur 1.4mph /  2.2km/h 3mph /  4.8km/h 82% 0in /  0.0mm
21:54 53.8 °F /  12.1 °C 48.4 °F /  9.1 °C 30.3in /  1027.1hPa Sur 0.6mph /  0.9km/h 1mph /  1.6km/h 82% 0in /  0.0mm
21:59 53.6 °F /  12 °C 48.2 °F /  9 °C 30.3in /  1027.1hPa Calm   2.4mph /  3.9km/h 82% 0in /  0.0mm
22:04 53.4 °F /  11.9 °C 48 °F /  8.9 °C 30.3in /  1027.1hPa Calm   2.3mph /  3.7km/h 82% 0in /  0.0mm
22:09 53.2 °F /  11.8 °C 48.2 °F /  9 °C 30.3in /  1027.1hPa Calm   2mph /  3.2km/h 82.7% 0in /  0.0mm
22:14 53.1 °F /  11.7 °C 48 °F /  8.9 °C 30.3in /  1027.1hPa Calm     83% 0in /  0.0mm
22:19 53.1 °F /  11.7 °C 48 °F /  8.9 °C 30.3in /  1027.1hPa Calm   2.3mph /  3.7km/h 83% 0in /  0.0mm
22:24 53.1 °F /  11.7 °C 48 °F /  8.9 °C 30.3in /  1027.3hPa Calm   3.1mph /  5km/h 83% 0in /  0.0mm
22:29 52.9 °F /  11.6 °C 47.8 °F /  8.8 °C 30.3in /  1027.3hPa Calm   3.5mph /  5.6km/h 83% 0in /  0.0mm
22:34 52.7 °F /  11.5 °C 47.8 °F /  8.8 °C 30.3in /  1027.3hPa SE 1.1mph /  1.7km/h 3.6mph /  5.8km/h 83% 0in /  0.0mm
22:39 52.5 °F /  11.4 °C 47.5 °F /  8.6 °C 30.3in /  1027.3hPa SE 1.8mph /  2.9km/h 5.2mph /  8.4km/h 83% 0in /  0.0mm
22:44 52.3 °F /  11.3 °C 47.3 °F /  8.5 °C 30.3in /  1027.3hPa SE 2.2mph /  3.5km/h 5mph /  8km/h 83% 0in /  0.0mm
22:49 52.2 °F /  11.2 °C 47.3 °F /  8.5 °C 30.3in /  1027.3hPa SE 2.4mph /  3.9km/h 5mph /  8km/h 83% 0in /  0.0mm
22:54 52 °F /  11.1 °C 47.3 °F /  8.5 °C 30.3in /  1027.3hPa SE 2.4mph /  3.9km/h 5mph /  8km/h 83.7% 0in /  0.0mm
22:59 51.8 °F /  11 °C 47.1 °F /  8.4 °C 30.3in /  1027.3hPa SE 2.4mph /  3.9km/h 4.6mph /  7.4km/h 84% 0in /  0.0mm
23:04 51.6 °F /  10.9 °C 46.9 °F /  8.3 °C 30.3in /  1027.3hPa SE 2.2mph /  3.5km/h 5mph /  8km/h 84% 0in /  0.0mm
23:09 51.4 °F /  10.8 °C 46.8 °F /  8.2 °C 30.3in /  1027.4hPa SE 2mph /  3.2km/h 3mph /  4.8km/h 84% 0in /  0.0mm
23:14 51.3 °F /  10.7 °C 46.8 °F /  8.2 °C 30.3in /  1027.4hPa SE 1.6mph /  2.6km/h 3.5mph /  5.6km/h 84% 0in /  0.0mm
23:19 51.3 °F /  10.7 °C 46.6 °F /  8.1 °C 30.3in /  1027.4hPa SE 1.4mph /  2.2km/h 3mph /  4.8km/h 84% 0in /  0.0mm
23:24 51.1 °F /  10.6 °C 46.8 °F /  8.2 °C 30.3in /  1027.6hPa SE 0.6mph /  0.9km/h 2mph /  3.2km/h 84.9% 0in /  0.0mm
23:29 50.9 °F /  10.5 °C 46.6 °F /  8.1 °C 30.3in /  1027.6hPa Calm   2.4mph /  3.9km/h 85% 0in /  0.0mm
23:34 50.7 °F /  10.4 °C 46.2 °F /  7.9 °C 30.3in /  1027.6hPa Calm   3.5mph /  5.6km/h 84.7% 0in /  0.0mm
23:39 50.4 °F /  10.2 °C 45.7 °F /  7.6 °C 30.4in /  1027.8hPa Calm   4.6mph /  7.4km/h 84.2% 0in /  0.0mm
23:44 49.8 °F /  9.9 °C 45.7 °F /  7.6 °C 30.4in /  1027.8hPa NE 1.4mph /  2.3km/h 5mph /  8km/h 85.4% 0in /  0.0mm
23:49 49.6 °F /  9.8 °C 45.7 °F /  7.6 °C 30.4in /  1027.8hPa NE 2.4mph /  3.9km/h 5mph /  8km/h 86.4% 0in /  0.0mm
23:54 49.5 °F /  9.7 °C 45.9 °F /  7.7 °C 30.4in /  1027.8hPa ENE 2.7mph /  4.3km/h 5mph /  8km/h 87.2% 0in /  0.0mm
23:59 49.5 °F /  9.7 °C 46 °F /  7.8 °C 30.4in /  1027.8hPa ENE 2.9mph /  4.7km/h 5mph /  8km/h 88% 0in /  0.0mm
Murcia-Puente Tocinos, España
Compliments of Weather Underground - 3 mb

La estación de MeteoMurcia.com, publica sus datos en los siguientes proyectos:

Weather Underground PWS IMURCIAP2 Meteoclimatic www.awekas.at

W3Counter
Web Analytics